메인 페이지
METAR-TAF:

METAR-TAF

공항 :

로건 국제공항

보스턴, 매사추세츠, 미국

위도: 42-21-38N, 경도: 071-00-38W, 고도: 6m

현재 날씨관측

예보는 30분 전, 11:54시(UTC)에 발표되었습니다.
여러 방향의 바람 3kt
온도 15°C
습도 94%
기압 1021 hPa
시정: 4.0km
고도 700ft 상공 흐림
박무

METAR: KBOS 261154Z VRB03KT 2 1/2SM BR OVC007 15/14 A3016 RMK AO2 SLP213 T01500139 10156 20144 51012

시각: 08:24 (12:24 UTC)

예보

예보는 59분 전, 11:25시(UTC)에 발표되었습니다.
예보 대상 시간: 26일 12시부터 27일 18시까지 (UTC)
남남서4kt
시정: 3.2km
고도 800ft 상공 흐림
박무
26일 1300시부터 (UTC)
4kt
시정: 6.4km
고도 800ft 상공 구름 많음
박무
26일 1400시부터 (UTC)
5kt
시정: 10km
고도 25000ft 상공 구름 보통
26일 2100시부터 (UTC)
10kt
시정: 10km
고도 7000ft 상공 구름 보통
27일 0400시부터 (UTC)
6kt
시정: 4.8km
고도 1500ft 상공 구름 많음
박무
27일 0700시부터 (UTC)
6kt
시정: 3.2km
고도 300ft 상공 구름 많음
박무
27일 1300시부터 (UTC)
5kt
시정: 10km
고도 1000ft 상공 구름 많음

TAF: KBOS 261125Z 2612/2718 20004KT 2SM BR OVC008 FM261300 19004KT 4SM BR BKN008 FM261400 18005KT P6SM SCT250 FM262100 18010KT P6SM SCT070 FM270400 19006KT 3SM BR BKN015 FM270700 19006KT 2SM BR BKN003 FM271300 18005KT P6SM BKN010

4,000개 이상의 공항 관측 자료 및 예보 (METAR 및 TAF 보고).

지도상에서 검색 가능한 기상관측소가 노란 점과 빨간 점으로 표시되어 있습니다.

기상관측소 명을 보려면 표시 위로 마우스를 이동하세요.

날씨 관측과 예보를 보려면 클릭하세요.

지도 변경 : 확대하려면 엑스 표시가 있는 녹색 버튼, 축소하려면 빼기 표시가 있는 녹색 버튼, 다음 페이지의 지도를 보려면 녹색 화살표를 클릭하세요.


METAR-TAF: